createdAt,value
2023-02-28T00:01:33.336Z,89.55
2023-02-28T00:04:02.902Z,89.56
2023-02-28T00:06:32.290Z,89.92
2023-02-28T00:09:01.521Z,89.76
2023-02-28T00:11:31.714Z,89.97
2023-02-28T00:14:01.438Z,90.07
2023-02-28T00:16:30.781Z,90.23
2023-02-28T00:19:00.119Z,90.04
2023-02-28T00:21:30.188Z,90.28
2023-02-28T00:23:59.602Z,90.65
2023-02-28T00:26:28.929Z,90.44
2023-02-28T00:28:58.131Z,91.31
2023-02-28T00:31:27.871Z,91.02
2023-02-28T00:33:57.383Z,91.10
2023-02-28T00:36:26.738Z,91.05
2023-02-28T00:38:56.179Z,91.06
2023-02-28T00:41:25.424Z,91.22
2023-02-28T00:43:54.821Z,91.32
2023-02-28T00:46:24.236Z,91.07
2023-02-28T00:48:53.728Z,90.99
2023-02-28T00:51:22.982Z,90.55
2023-02-28T00:53:52.974Z,90.50
2023-02-28T00:56:23.048Z,90.39
2023-02-28T00:58:52.302Z,90.14
2023-02-28T01:01:21.723Z,89.81
2023-02-28T01:03:51.432Z,89.54
2023-02-28T01:06:21.008Z,89.41
2023-02-28T01:08:50.522Z,89.49
2023-02-28T01:11:20.960Z,89.29
2023-02-28T01:13:50.262Z,89.25
2023-02-28T01:16:19.950Z,89.50
2023-02-28T01:18:49.456Z,89.57
2023-02-28T01:21:21.249Z,89.73
2023-02-28T01:23:50.907Z,89.22
2023-02-28T01:26:22.731Z,88.87
2023-02-28T01:28:54.037Z,88.66
2023-02-28T01:31:24.749Z,88.38
2023-02-28T01:33:54.043Z,88.18
2023-02-28T01:36:25.413Z,88.55
2023-02-28T01:38:56.001Z,88.21
2023-02-28T01:41:31.677Z,88.14
2023-02-28T01:44:09.538Z,88.28
2023-02-28T01:46:38.842Z,88.00
2023-02-28T01:49:11.612Z,87.91
2023-02-28T01:51:51.082Z,88.20
2023-02-28T01:54:26.416Z,88.11
2023-02-28T01:56:59.134Z,88.21
2023-02-28T01:59:38.630Z,87.86
2023-02-28T02:02:08.196Z,88.02
2023-02-28T02:04:57.617Z,87.62
2023-02-28T02:07:27.670Z,87.68
2023-02-28T02:10:09.250Z,87.96
2023-02-28T02:12:50.442Z,87.88
2023-02-28T02:15:35.016Z,88.17
2023-02-28T02:18:07.230Z,88.56
2023-02-28T02:20:49.276Z,88.26
2023-02-28T02:23:35.348Z,88.42
2023-02-28T02:26:16.768Z,88.42
2023-02-28T02:28:48.686Z,88.36
2023-02-28T02:31:23.766Z,88.18
2023-02-28T02:34:24.834Z,88.79
2023-02-28T02:36:57.303Z,87.96
2023-02-28T02:39:42.518Z,88.16
2023-02-28T02:42:15.100Z,87.98
2023-02-28T02:44:54.388Z,87.89
2023-02-28T02:47:28.388Z,88.35
2023-02-28T02:50:00.195Z,88.26
2023-02-28T02:52:32.755Z,88.15
2023-02-28T02:55:02.848Z,88.13
2023-02-28T02:57:38.595Z,88.88
2023-02-28T03:00:09.767Z,88.87
2023-02-28T03:02:40.583Z,88.52
2023-02-28T03:05:16.330Z,88.08
2023-02-28T03:07:45.826Z,87.93
2023-02-28T03:10:38.418Z,88.02
2023-02-28T03:13:11.130Z,88.27
2023-02-28T03:15:43.912Z,88.11
2023-02-28T03:18:17.169Z,88.19
2023-02-28T03:20:56.008Z,88.20
2023-02-28T03:23:44.363Z,88.14
2023-02-28T03:26:19.792Z,88.18
2023-02-28T03:29:18.449Z,88.01
2023-02-28T03:31:50.985Z,88.07
2023-02-28T03:34:26.234Z,88.26
2023-02-28T03:37:01.787Z,88.04
2023-02-28T03:39:39.958Z,87.98
2023-02-28T03:42:15.286Z,88.14
2023-02-28T03:44:53.240Z,88.03
2023-02-28T03:47:37.532Z,88.02
2023-02-28T03:50:18.753Z,88.17
2023-02-28T03:53:06.561Z,88.58
2023-02-28T03:55:39.582Z,88.87
2023-02-28T03:58:12.247Z,88.52
2023-02-28T04:00:44.648Z,88.11
2023-02-28T04:03:13.919Z,88.44
2023-02-28T04:05:56.824Z,88.22
2023-02-28T04:08:26.100Z,88.23
2023-02-28T04:11:06.957Z,88.30
2023-02-28T04:13:36.280Z,88.26
2023-02-28T04:16:13.485Z,88.21
2023-02-28T04:18:45.808Z,87.45
2023-02-28T04:21:14.458Z,87.79
2023-02-28T04:23:43.838Z,87.90
2023-02-28T04:26:13.155Z,87.69
2023-02-28T04:28:42.435Z,87.77
2023-02-28T04:31:12.334Z,87.47
2023-02-28T04:33:42.227Z,87.77
2023-02-28T04:36:11.684Z,87.67
2023-02-28T04:38:41.485Z,87.42
2023-02-28T04:41:10.789Z,88.17
2023-02-28T04:43:40.449Z,88.12
2023-02-28T04:46:11.091Z,87.64
2023-02-28T04:48:41.797Z,87.55
2023-02-28T04:51:13.834Z,86.89
2023-02-28T04:53:44.771Z,87.17
2023-02-28T04:56:15.676Z,86.99
2023-02-28T04:58:45.166Z,86.70
2023-02-28T05:01:29.071Z,86.34
2023-02-28T05:04:00.246Z,85.83
2023-02-28T05:06:31.423Z,84.61
2023-02-28T05:09:01.090Z,85.03
2023-02-28T05:11:36.354Z,84.97
2023-02-28T05:14:08.445Z,85.14
2023-02-28T05:16:38.016Z,85.64
2023-02-28T05:19:07.416Z,85.96
2023-02-28T05:21:41.460Z,86.44
2023-02-28T05:24:13.990Z,86.54
2023-02-28T05:26:44.772Z,87.18
2023-02-28T05:29:14.029Z,86.93
2023-02-28T05:31:43.383Z,86.56
2023-02-28T05:34:13.590Z,86.81
2023-02-28T05:36:42.821Z,86.47
2023-02-28T05:39:14.070Z,85.89
2023-02-28T05:41:44.785Z,86.23
2023-02-28T05:44:14.555Z,86.75
2023-02-28T05:46:43.832Z,86.74
2023-02-28T05:49:13.055Z,86.21
2023-02-28T05:51:42.724Z,85.58
2023-02-28T05:54:13.847Z,85.81
2023-02-28T05:56:45.098Z,85.08
2023-02-28T05:59:15.009Z,85.61
2023-02-28T06:01:48.164Z,85.57
2023-02-28T06:04:31.135Z,85.12
2023-02-28T06:06:52.115Z,84.57
2023-02-28T06:09:21.444Z,85.54
2023-02-28T06:11:50.836Z,84.62
2023-02-28T06:14:21.040Z,84.96
2023-02-28T06:16:50.681Z,85.41
2023-02-28T06:19:20.008Z,84.58
2023-02-28T06:21:52.756Z,84.39
2023-02-28T06:24:23.160Z,85.00
2023-02-28T06:26:52.474Z,83.61
2023-02-28T06:29:21.819Z,82.87
2023-02-28T06:31:51.176Z,83.95
2023-02-28T06:34:20.537Z,83.18
2023-02-28T06:36:52.661Z,83.62
2023-02-28T06:39:22.789Z,84.38
2023-02-28T06:41:56.033Z,84.58
2023-02-28T06:44:25.426Z,83.25
2023-02-28T06:46:54.913Z,83.74
2023-02-28T06:49:24.123Z,82.60
2023-02-28T06:51:53.530Z,81.96
2023-02-28T06:54:22.940Z,82.53
2023-02-28T06:56:52.853Z,82.58
2023-02-28T06:59:22.480Z,82.58
2023-02-28T07:01:52.104Z,83.16
2023-02-28T07:04:21.510Z,83.23
2023-02-28T07:06:51.207Z,84.30
2023-02-28T07:09:20.890Z,83.67
2023-02-28T07:11:50.104Z,83.37
2023-02-28T07:14:19.779Z,83.86
2023-02-28T07:16:48.981Z,84.04
2023-02-28T07:19:18.486Z,84.97
2023-02-28T07:21:47.683Z,84.95
2023-02-28T07:24:19.007Z,85.14
2023-02-28T07:26:48.261Z,85.17
2023-02-28T07:29:17.655Z,85.81
2023-02-28T07:31:47.640Z,85.05
2023-02-28T07:34:16.997Z,84.92
2023-02-28T07:36:46.510Z,84.80
2023-02-28T07:39:15.820Z,84.96
2023-02-28T07:41:45.350Z,84.84
2023-02-28T07:44:14.832Z,84.86
2023-02-28T07:46:44.130Z,84.10
2023-02-28T07:49:13.415Z,84.21
2023-02-28T07:51:42.670Z,84.55
2023-02-28T07:54:12.443Z,83.92
2023-02-28T07:56:41.672Z,83.69
2023-02-28T07:59:11.320Z,82.97
2023-02-28T08:01:40.660Z,83.08
2023-02-28T08:04:09.924Z,82.81
2023-02-28T08:06:39.486Z,82.49
2023-02-28T08:09:09.243Z,81.72
2023-02-28T08:11:38.782Z,81.13
2023-02-28T08:14:08.154Z,80.21
2023-02-28T08:16:38.053Z,79.80
2023-02-28T08:19:07.269Z,79.74
2023-02-28T08:21:37.089Z,80.23
2023-02-28T08:24:07.086Z,80.62
2023-02-28T08:26:36.483Z,79.34
2023-02-28T08:29:05.704Z,80.38
2023-02-28T08:31:36.606Z,79.95
2023-02-28T08:34:13.121Z,79.55
2023-02-28T08:36:44.215Z,80.27
2023-02-28T08:39:14.239Z,77.51
2023-02-28T08:41:45.251Z,77.72
2023-02-28T08:44:14.748Z,77.83
2023-02-28T08:46:44.004Z,77.60
2023-02-28T08:49:13.574Z,78.37
2023-02-28T08:51:42.858Z,77.73
2023-02-28T08:54:13.529Z,76.73
2023-02-28T08:56:43.165Z,76.23
2023-02-28T08:59:12.338Z,76.04
2023-02-28T09:01:42.795Z,74.78
2023-02-28T09:04:14.476Z,74.18
2023-02-28T09:06:43.585Z,74.67
2023-02-28T09:09:13.420Z,73.23
2023-02-28T09:11:43.378Z,72.32
2023-02-28T09:14:13.049Z,73.21
2023-02-28T09:16:42.587Z,72.23
2023-02-28T09:19:15.294Z,73.35
2023-02-28T09:21:44.990Z,70.59
2023-02-28T09:24:16.169Z,68.77
2023-02-28T09:26:56.316Z,69.80
2023-02-28T09:29:18.451Z,63.17
2023-02-28T09:31:48.359Z,60.14
2023-02-28T09:34:18.543Z,56.48
2023-02-28T09:36:48.687Z,55.92
2023-02-28T09:39:18.333Z,55.73
2023-02-28T09:41:51.794Z,53.71
2023-02-28T09:44:44.891Z,51.14
2023-02-28T09:47:20.068Z,51.11
2023-02-28T09:49:50.479Z,51.86
2023-02-28T09:52:23.273Z,51.78
2023-02-28T09:54:52.645Z,51.00
2023-02-28T09:57:41.414Z,49.55
2023-02-28T10:00:25.385Z,51.80
2023-02-28T10:03:15.956Z,50.90
2023-02-28T10:06:05.159Z,50.56
2023-02-28T10:08:46.753Z,51.05
2023-02-28T10:11:18.363Z,51.66
2023-02-28T10:13:53.988Z,51.63
2023-02-28T10:16:26.743Z,50.68
2023-02-28T10:19:05.290Z,50.22
2023-02-28T10:21:37.694Z,49.00
2023-02-28T10:24:16.235Z,48.71
2023-02-28T10:26:47.305Z,46.01
2023-02-28T10:29:17.181Z,45.73
2023-02-28T10:31:46.540Z,41.46
2023-02-28T10:34:15.840Z,41.26
2023-02-28T10:36:45.967Z,38.91
2023-02-28T10:39:40.629Z,38.74
2023-02-28T10:42:27.798Z,37.37
2023-02-28T10:45:17.972Z,36.99
2023-02-28T10:47:59.084Z,35.30
2023-02-28T10:50:45.266Z,37.08
2023-02-28T10:53:30.263Z,36.74
2023-02-28T10:56:04.612Z,36.75
2023-02-28T10:58:53.871Z,37.10
2023-02-28T11:01:40.953Z,36.79
2023-02-28T11:04:33.032Z,36.43
2023-02-28T11:07:05.326Z,35.45
2023-02-28T11:09:39.854Z,35.08
2023-02-28T11:12:12.209Z,34.83
2023-02-28T11:14:45.159Z,36.05
2023-02-28T11:17:17.713Z,34.74
2023-02-28T11:19:47.586Z,34.63
2023-02-28T11:22:25.572Z,34.01
2023-02-28T11:24:57.277Z,37.04
2023-02-28T11:27:35.688Z,34.22
2023-02-28T11:30:05.787Z,32.52
2023-02-28T11:32:35.615Z,34.06
2023-02-28T11:35:14.746Z,36.01
2023-02-28T11:37:45.667Z,36.41
2023-02-28T11:40:20.790Z,35.13
2023-02-28T11:42:58.818Z,36.63
2023-02-28T11:45:41.533Z,36.36
2023-02-28T11:48:13.026Z,36.62
2023-02-28T11:50:53.824Z,37.59
2023-02-28T11:53:29.396Z,34.79
2023-02-28T11:56:01.836Z,37.67
2023-02-28T11:58:56.876Z,38.11
2023-02-28T12:01:32.491Z,37.68
2023-02-28T12:04:16.502Z,37.48
2023-02-28T12:06:49.225Z,34.38
2023-02-28T12:09:24.537Z,34.94
2023-02-28T12:11:57.488Z,36.67
2023-02-28T12:14:38.982Z,35.35
2023-02-28T12:17:17.549Z,36.38
2023-02-28T12:19:56.516Z,35.79
2023-02-28T12:22:45.912Z,36.86
2023-02-28T12:25:34.775Z,36.37
2023-02-28T12:28:04.947Z,34.11
2023-02-28T12:30:37.328Z,35.94
2023-02-28T12:33:10.093Z,35.42
2023-02-28T12:35:56.774Z,35.93
2023-02-28T12:38:50.724Z,37.27
2023-02-28T12:41:38.708Z,34.94
2023-02-28T12:44:17.300Z,35.75
2023-02-28T12:46:52.598Z,36.59
2023-02-28T12:49:36.890Z,38.31
2023-02-28T12:52:06.924Z,35.75
2023-02-28T12:54:48.434Z,36.44
2023-02-28T12:57:23.893Z,35.20
2023-02-28T12:59:56.974Z,37.12
2023-02-28T13:02:38.748Z,36.55
2023-02-28T13:05:28.726Z,37.90
2023-02-28T13:08:17.651Z,36.56
2023-02-28T13:10:50.481Z,37.45
2023-02-28T13:13:21.787Z,36.34
2023-02-28T13:16:11.719Z,36.57
2023-02-28T13:18:48.480Z,36.76
2023-02-28T13:21:29.520Z,36.32
2023-02-28T13:24:02.591Z,37.87
2023-02-28T13:26:44.786Z,37.19
2023-02-28T13:29:20.196Z,36.88
2023-02-28T13:32:10.801Z,38.48
2023-02-28T13:34:45.755Z,38.15
2023-02-28T13:37:26.935Z,38.30
2023-02-28T13:40:16.156Z,37.80
2023-02-28T13:42:50.199Z,38.08
2023-02-28T13:45:25.254Z,37.99
2023-02-28T13:48:06.230Z,38.44
2023-02-28T13:50:39.002Z,38.07
2023-02-28T13:53:21.406Z,38.57
2023-02-28T13:56:27.790Z,38.12
2023-02-28T13:59:03.186Z,39.77
2023-02-28T14:01:39.076Z,38.58
2023-02-28T14:04:47.181Z,38.20
2023-02-28T14:07:36.210Z,37.35
2023-02-28T14:10:06.810Z,38.53
2023-02-28T14:13:05.250Z,40.01
2023-02-28T14:15:47.147Z,39.53
2023-02-28T14:18:26.954Z,40.46
2023-02-28T14:20:58.799Z,40.63
2023-02-28T14:23:51.349Z,41.49
2023-02-28T14:26:57.338Z,39.44
2023-02-28T14:29:41.731Z,39.10
2023-02-28T14:32:48.819Z,40.42
2023-02-28T14:35:47.247Z,40.12
2023-02-28T14:38:22.912Z,39.69
2023-02-28T14:40:54.400Z,39.58
2023-02-28T14:43:27.547Z,40.34
2023-02-28T14:45:59.470Z,40.39
2023-02-28T14:48:29.266Z,38.95
2023-02-28T14:51:00.821Z,40.39
2023-02-28T14:53:32.353Z,40.77
2023-02-28T14:56:01.964Z,39.45
2023-02-28T14:58:33.829Z,41.33
2023-02-28T15:01:05.125Z,40.11
2023-02-28T15:03:40.157Z,41.34
2023-02-28T15:06:19.495Z,40.96
2023-02-28T15:08:49.067Z,40.60
2023-02-28T15:11:25.517Z,42.08
2023-02-28T15:13:59.053Z,41.61
2023-02-28T15:16:39.989Z,41.81
2023-02-28T15:19:18.041Z,42.01
2023-02-28T15:21:50.512Z,42.99
2023-02-28T15:24:38.742Z,41.96
2023-02-28T15:27:11.389Z,41.21
2023-02-28T15:29:50.162Z,40.90
2023-02-28T15:32:40.960Z,41.89
2023-02-28T15:35:28.769Z,41.41
2023-02-28T15:38:03.487Z,43.41
2023-02-28T15:40:36.035Z,45.53
2023-02-28T15:43:07.350Z,45.15
2023-02-28T15:45:42.606Z,44.47
2023-02-28T15:48:23.435Z,46.17
2023-02-28T15:50:55.218Z,45.76
2023-02-28T15:53:48.586Z,44.72
2023-02-28T15:56:24.080Z,44.87
2023-02-28T15:58:58.013Z,44.90
2023-02-28T16:01:38.682Z,45.24
2023-02-28T16:04:21.939Z,46.42
2023-02-28T16:07:03.428Z,46.69
2023-02-28T16:09:34.959Z,46.91
2023-02-28T16:12:06.405Z,46.10
2023-02-28T16:14:36.633Z,45.37
2023-02-28T16:17:09.833Z,46.54
2023-02-28T16:19:39.099Z,47.88
2023-02-28T16:22:09.386Z,47.04
2023-02-28T16:24:39.630Z,47.53
2023-02-28T16:27:09.101Z,47.48
2023-02-28T16:29:39.456Z,47.60
2023-02-28T16:32:09.467Z,48.09
2023-02-28T16:34:39.045Z,48.09
2023-02-28T16:37:16.921Z,49.07
2023-02-28T16:39:47.598Z,47.93
2023-02-28T16:42:30.695Z,49.28
2023-02-28T16:45:00.570Z,49.62
2023-02-28T16:47:29.982Z,49.63
2023-02-28T16:49:59.820Z,49.98
2023-02-28T16:52:29.039Z,50.12
2023-02-28T16:54:58.338Z,51.05
2023-02-28T16:57:27.613Z,50.07
2023-02-28T16:59:56.861Z,52.12
2023-02-28T17:02:26.471Z,51.67
2023-02-28T17:04:56.157Z,51.30
2023-02-28T17:07:25.372Z,52.02
2023-02-28T17:09:54.994Z,51.33
2023-02-28T17:12:24.256Z,51.27
2023-02-28T17:14:53.826Z,52.01
2023-02-28T17:17:24.029Z,52.23
2023-02-28T17:19:53.272Z,52.98
2023-02-28T17:22:23.032Z,53.75
2023-02-28T17:24:52.543Z,53.79
2023-02-28T17:27:21.751Z,53.81
2023-02-28T17:29:51.225Z,54.15
2023-02-28T17:32:20.708Z,54.65
2023-02-28T17:34:49.981Z,55.07
2023-02-28T17:37:19.392Z,56.46
2023-02-28T17:39:48.762Z,56.42
2023-02-28T17:42:17.994Z,57.62
2023-02-28T17:44:47.530Z,59.49
2023-02-28T17:47:16.962Z,58.39
2023-02-28T17:49:46.369Z,58.85
2023-02-28T17:52:15.612Z,58.70
2023-02-28T17:54:45.308Z,59.15
2023-02-28T17:57:16.858Z,60.00
2023-02-28T17:59:46.769Z,59.74
2023-02-28T18:02:16.940Z,61.53
2023-02-28T18:04:46.266Z,62.46
2023-02-28T18:07:15.782Z,63.09
2023-02-28T18:09:45.079Z,62.22
2023-02-28T18:12:14.404Z,63.35
2023-02-28T18:14:44.062Z,63.08
2023-02-28T18:17:14.541Z,63.53
2023-02-28T18:19:43.763Z,63.86
2023-02-28T18:22:13.364Z,64.51
2023-02-28T18:24:42.763Z,64.93
2023-02-28T18:27:12.565Z,65.23
2023-02-28T18:29:42.088Z,66.40
2023-02-28T18:32:12.873Z,64.78
2023-02-28T18:34:42.398Z,64.01
2023-02-28T18:37:13.438Z,64.17
2023-02-28T18:39:42.682Z,64.46
2023-02-28T18:42:11.886Z,65.06
2023-02-28T18:44:41.713Z,66.98
2023-02-28T18:47:11.017Z,67.89
2023-02-28T18:49:40.496Z,67.59
2023-02-28T18:52:09.744Z,67.14
2023-02-28T18:54:38.993Z,68.20
2023-02-28T18:57:08.560Z,68.87
2023-02-28T18:59:37.841Z,69.55
2023-02-28T19:02:07.368Z,70.26
2023-02-28T19:04:36.683Z,70.42
2023-02-28T19:07:06.570Z,70.53
2023-02-28T19:09:36.113Z,70.64
2023-02-28T19:12:05.706Z,70.71
2023-02-28T19:14:35.114Z,70.85
2023-02-28T19:17:05.230Z,71.05
2023-02-28T19:19:34.491Z,70.46
2023-02-28T19:22:04.663Z,70.36
2023-02-28T19:24:34.339Z,71.73
2023-02-28T19:27:03.838Z,72.44
2023-02-28T19:29:33.306Z,74.25
2023-02-28T19:32:04.509Z,75.01
2023-02-28T19:34:35.348Z,76.44
2023-02-28T19:37:04.813Z,76.56
2023-02-28T19:39:35.745Z,75.69
2023-02-28T19:42:05.533Z,75.45
2023-02-28T19:44:35.028Z,76.14
2023-02-28T19:47:04.645Z,76.61
2023-02-28T19:49:34.277Z,76.80
2023-02-28T19:52:03.968Z,76.33
2023-02-28T19:54:34.834Z,76.69
2023-02-28T19:57:04.297Z,77.76
2023-02-28T19:59:39.221Z,77.48
2023-02-28T20:02:04.849Z,78.05
2023-02-28T20:04:34.688Z,78.50
2023-02-28T20:07:04.790Z,78.82
2023-02-28T20:09:34.430Z,79.00
2023-02-28T20:12:07.106Z,79.13
2023-02-28T20:14:35.022Z,79.72
2023-02-28T20:17:04.526Z,79.77
2023-02-28T20:19:34.153Z,79.64
2023-02-28T20:22:03.558Z,80.02
2023-02-28T20:24:32.915Z,79.87
2023-02-28T20:27:02.539Z,79.70
2023-02-28T20:29:31.951Z,79.83
2023-02-28T20:32:01.524Z,79.20
2023-02-28T20:34:31.129Z,78.97
2023-02-28T20:37:00.811Z,79.52
2023-02-28T20:39:30.199Z,79.38
2023-02-28T20:41:59.449Z,81.19
2023-02-28T20:44:29.375Z,80.23
2023-02-28T20:46:58.612Z,79.37
2023-02-28T20:49:27.947Z,80.69
2023-02-28T20:51:57.237Z,79.76
2023-02-28T20:54:28.060Z,80.15
2023-02-28T20:56:57.548Z,80.23
2023-02-28T20:59:27.087Z,79.47
2023-02-28T21:01:56.407Z,79.50
2023-02-28T21:04:25.910Z,80.12
2023-02-28T21:06:55.344Z,79.67
2023-02-28T21:09:24.802Z,79.42
2023-02-28T21:11:57.191Z,79.36
2023-02-28T21:14:27.354Z,79.40
2023-02-28T21:16:56.920Z,78.83
2023-02-28T21:19:26.283Z,78.90
2023-02-28T21:21:56.311Z,79.25
2023-02-28T21:24:25.575Z,79.66
2023-02-28T21:26:56.928Z,79.66
2023-02-28T21:29:26.184Z,79.97
2023-02-28T21:31:56.030Z,81.02
2023-02-28T21:34:26.901Z,82.87
2023-02-28T21:36:56.247Z,83.78
2023-02-28T21:39:30.071Z,82.62
2023-02-28T21:42:01.351Z,81.37
2023-02-28T21:44:31.841Z,80.59
2023-02-28T21:47:02.083Z,79.39
2023-02-28T21:49:43.028Z,79.17
2023-02-28T21:52:14.056Z,78.59
2023-02-28T21:54:48.462Z,78.27
2023-02-28T21:57:39.658Z,77.08
2023-02-28T22:00:12.740Z,75.63
2023-02-28T22:02:44.072Z,75.74
2023-02-28T22:05:14.369Z,76.03
2023-02-28T22:07:45.758Z,76.15
2023-02-28T22:10:15.380Z,76.36
2023-02-28T22:12:46.243Z,76.51
2023-02-28T22:15:18.074Z,76.85
2023-02-28T22:17:47.281Z,77.34
2023-02-28T22:20:17.213Z,77.32
2023-02-28T22:22:48.651Z,77.94
2023-02-28T22:25:19.025Z,77.71
2023-02-28T22:27:49.604Z,77.88
2023-02-28T22:30:19.954Z,78.61
2023-02-28T22:32:49.710Z,78.04
2023-02-28T22:35:40.946Z,78.27
2023-02-28T22:38:25.845Z,78.09
2023-02-28T22:40:58.291Z,77.96
2023-02-28T22:43:28.224Z,78.23
2023-02-28T22:45:57.937Z,78.20
2023-02-28T22:48:27.274Z,78.27
2023-02-28T22:51:07.848Z,78.25
2023-02-28T22:53:37.928Z,78.96
2023-02-28T22:56:08.254Z,79.06
2023-02-28T22:58:38.481Z,79.53
2023-02-28T23:01:10.484Z,79.89
2023-02-28T23:03:40.298Z,79.90
2023-02-28T23:06:24.446Z,79.53
2023-02-28T23:08:54.592Z,79.42
2023-02-28T23:11:27.165Z,79.52
2023-02-28T23:13:59.489Z,80.08
2023-02-28T23:16:41.421Z,80.15
2023-02-28T23:19:13.869Z,80.46
2023-02-28T23:21:44.503Z,80.64
2023-02-28T23:24:16.159Z,80.99
2023-02-28T23:26:47.831Z,81.41
2023-02-28T23:29:19.463Z,81.84
2023-02-28T23:31:49.010Z,81.78
2023-02-28T23:34:21.340Z,81.85
2023-02-28T23:36:50.115Z,82.14
2023-02-28T23:39:19.679Z,81.96
2023-02-28T23:41:49.333Z,82.38
2023-02-28T23:44:18.933Z,82.44
2023-02-28T23:46:51.746Z,83.37
2023-02-28T23:49:22.133Z,82.82
2023-02-28T23:51:54.666Z,83.57
2023-02-28T23:54:24.253Z,84.08
2023-02-28T23:56:54.242Z,84.18
2023-02-28T23:59:23.532Z,84.47
